Rio Gallegos, Argentina
Current Conditions -  °F | °C
As of 10:00 PM on Monday 20 Oct 2014 (Local Time) from SAWG Reporting Station
Clear Clear  
Wind Chill: 52°   Ceiling: Unl
Heat Index: 52°   Visibility: 6mi
Dew Point: 39°   Wind: 0mph
Humidity: 62%   Direction: NA
Pressure: 29.32"   Gusts: NA
Location:  51.62°S, 69.24°W
Report Text: SAWG 210100Z 00000KT CAVOK 11/04 Q0993
Loading
Personal Weather Stations






























Interactive Weather Map
Tropical Storm Tracking
New forecast layout! Learn more

10-Day Weather Forecast

Advertisements
Track Severe Weather on mobile